Cincinnati, Ohio
Traffic Map
Current Weather Conditions
Cincinnati, Ohio
Scattered Clouds
Scattered Clouds
53°
Feels Like: 53°
Wind Chill: 53° Ceiling: Unl
Heat Index: 53° Visibility: 7mi
Dew Point: 53° Wind: 0mph
Humidity: 100% Direction: ° ()
Pressure: 30.02in Gusts: 0mph
Raw Report DataKLUK 021053Z 00000KT 7SM SCT085 12/12 A3002 RMK AO2 SLP165 T01170117
Traffic Incident Summary
Active as of:
Severity:
Category:
InformationThere was an issue retrieving the traffic information for this location. Please try a different location or try again shortly.
Advertisements
Track Severe Weather on mobile